createdAt,value
2024-01-11T00:00:31.038Z,75.46
2024-01-11T00:05:18.385Z,75.66
2024-01-11T00:10:06.430Z,75.47
2024-01-11T00:14:53.606Z,75.33
2024-01-11T00:19:43.442Z,75.34
2024-01-11T00:24:30.501Z,75.99
2024-01-11T00:29:17.772Z,75.89
2024-01-11T00:34:05.131Z,75.82
2024-01-11T00:38:55.068Z,75.86
2024-01-11T00:43:42.390Z,75.94
2024-01-11T00:48:29.764Z,75.98
2024-01-11T00:53:17.060Z,76.44
2024-01-11T00:58:06.929Z,76.18
2024-01-11T01:02:55.020Z,76.42
2024-01-11T01:07:42.173Z,76.35
2024-01-11T01:12:29.293Z,76.66
2024-01-11T01:17:19.312Z,76.73
2024-01-11T01:22:06.527Z,76.88
2024-01-11T01:26:53.837Z,77.14
2024-01-11T01:32:11.125Z,77.77
2024-01-11T01:37:00.965Z,77.03
2024-01-11T01:41:48.134Z,77.66
2024-01-11T01:46:35.867Z,78.21
2024-01-11T01:51:25.025Z,78.23
2024-01-11T01:56:14.797Z,77.99
2024-01-11T02:01:02.493Z,78.67
2024-01-11T02:05:50.151Z,78.72
2024-01-11T02:10:38.047Z,78.85
2024-01-11T02:15:27.892Z,79.02
2024-01-11T02:20:15.478Z,79.03
2024-01-11T02:25:05.969Z,79.17
2024-01-11T02:29:53.191Z,79.74
2024-01-11T02:34:41.077Z,79.50
2024-01-11T02:39:28.667Z,79.53
2024-01-11T02:44:18.711Z,79.81
2024-01-11T02:49:06.175Z,80.01
2024-01-11T02:53:53.519Z,80.45
2024-01-11T02:58:40.921Z,80.36
2024-01-11T03:03:33.578Z,80.28
2024-01-11T03:08:20.833Z,80.44
2024-01-11T03:13:08.668Z,80.81
2024-01-11T03:17:56.192Z,81.17
2024-01-11T03:22:51.838Z,81.52
2024-01-11T03:27:39.090Z,81.80
2024-01-11T03:32:26.720Z,81.22
2024-01-11T03:37:14.025Z,81.94
2024-01-11T03:42:04.399Z,80.99
2024-01-11T03:46:51.611Z,81.89
2024-01-11T03:51:39.208Z,81.98
2024-01-11T03:56:26.531Z,82.27
2024-01-11T04:01:16.679Z,82.00
2024-01-11T04:06:04.331Z,82.77
2024-01-11T04:10:51.858Z,83.00
2024-01-11T04:15:39.135Z,82.84
2024-01-11T04:20:28.950Z,83.14
2024-01-11T04:25:16.220Z,82.70
2024-01-11T04:30:03.937Z,83.05
2024-01-11T04:34:51.160Z,82.94
2024-01-11T04:39:40.844Z,82.44
2024-01-11T04:44:28.327Z,83.37
2024-01-11T04:49:17.971Z,83.58
2024-01-11T04:54:05.414Z,83.06
2024-01-11T04:58:55.435Z,82.95
2024-01-11T05:03:42.916Z,83.71
2024-01-11T05:08:31.335Z,82.93
2024-01-11T05:13:19.421Z,83.53
2024-01-11T05:18:09.654Z,84.44
2024-01-11T05:22:57.829Z,85.74
2024-01-11T05:27:45.150Z,86.81
2024-01-11T05:32:32.596Z,87.47
2024-01-11T05:37:22.570Z,88.20
2024-01-11T05:42:09.889Z,85.81
2024-01-11T05:46:57.362Z,86.31
2024-01-11T05:51:44.908Z,87.26
2024-01-11T05:56:37.172Z,87.71
2024-01-11T06:01:24.434Z,86.58
2024-01-11T06:06:11.949Z,85.99
2024-01-11T06:10:59.366Z,87.30
2024-01-11T06:15:49.368Z,85.22
2024-01-11T06:20:36.873Z,86.29
2024-01-11T06:25:24.199Z,86.57
2024-01-11T06:30:12.859Z,87.52
2024-01-11T06:35:03.173Z,86.09
2024-01-11T06:39:51.175Z,87.41
2024-01-11T06:44:44.928Z,87.79
2024-01-11T06:49:35.131Z,88.35
2024-01-11T06:54:25.251Z,87.88
2024-01-11T06:59:13.080Z,89.27
2024-01-11T07:04:00.676Z,88.16
2024-01-11T07:08:48.138Z,88.68
2024-01-11T07:13:38.195Z,88.89
2024-01-11T07:18:25.746Z,88.26
2024-01-11T07:23:15.974Z,89.99
2024-01-11T07:28:03.514Z,90.15
2024-01-11T07:32:53.768Z,90.48
2024-01-11T07:37:41.416Z,91.27
2024-01-11T07:42:28.841Z,89.41
2024-01-11T07:47:16.616Z,88.50
2024-01-11T07:52:07.194Z,89.29
2024-01-11T07:56:56.579Z,89.45
2024-01-11T08:01:43.976Z,90.11
2024-01-11T08:06:32.867Z,88.69
2024-01-11T08:11:22.886Z,88.79
2024-01-11T08:16:16.776Z,87.91
2024-01-11T08:21:05.673Z,87.31
2024-01-11T08:25:53.146Z,86.75
2024-01-11T08:30:43.253Z,86.36
2024-01-11T08:35:30.745Z,86.71
2024-01-11T08:40:18.481Z,89.22
2024-01-11T08:45:07.413Z,87.76
2024-01-11T08:49:57.500Z,86.93
2024-01-11T08:54:44.945Z,86.51
2024-01-11T08:59:32.345Z,87.51
2024-01-11T09:04:20.213Z,86.95
2024-01-11T09:09:12.411Z,87.48
2024-01-11T09:13:59.873Z,88.07
2024-01-11T09:18:48.777Z,88.76
2024-01-11T09:23:36.565Z,88.11
2024-01-11T09:28:26.446Z,87.90
2024-01-11T09:33:13.782Z,87.05
2024-01-11T09:38:01.218Z,87.55
2024-01-11T09:42:48.534Z,87.15
2024-01-11T09:47:51.350Z,86.99
2024-01-11T09:52:40.935Z,86.38
2024-01-11T09:57:31.028Z,84.96
2024-01-11T10:02:18.913Z,82.23
2024-01-11T10:07:10.544Z,79.70
2024-01-11T10:11:57.987Z,76.51
2024-01-11T10:16:45.300Z,73.55
2024-01-11T10:21:32.631Z,72.04
2024-01-11T10:26:22.519Z,71.36
2024-01-11T10:31:09.999Z,70.85
2024-01-11T10:35:57.556Z,71.24
2024-01-11T10:40:45.516Z,73.43
2024-01-11T10:45:35.579Z,74.93
2024-01-11T10:50:26.977Z,76.64
2024-01-11T10:55:16.062Z,77.02
2024-01-11T11:00:04.767Z,77.85
2024-01-11T11:04:56.880Z,82.04
2024-01-11T11:09:45.506Z,85.85
2024-01-11T11:14:36.177Z,87.94
2024-01-11T11:19:24.093Z,91.05
2024-01-11T11:24:20.045Z,91.55
2024-01-11T11:29:09.558Z,92.62
2024-01-11T11:34:01.815Z,93.63
2024-01-11T11:38:53.394Z,94.02
2024-01-11T11:43:49.391Z,94.01
2024-01-11T11:48:51.817Z,93.58
2024-01-11T11:53:40.870Z,93.75
2024-01-11T11:58:30.513Z,94.06
2024-01-11T12:03:21.234Z,93.70
2024-01-11T12:08:09.040Z,93.12
2024-01-11T12:12:56.759Z,95.04
2024-01-11T12:17:47.669Z,94.34
2024-01-11T12:22:40.346Z,92.73
2024-01-11T12:27:31.272Z,93.70
2024-01-11T12:32:18.813Z,93.40
2024-01-11T12:37:07.267Z,91.52
2024-01-11T12:42:00.745Z,92.97
2024-01-11T12:46:49.543Z,92.74
2024-01-11T12:51:37.851Z,92.61
2024-01-11T12:56:37.753Z,92.22
2024-01-11T13:01:31.565Z,91.63
2024-01-11T13:06:19.692Z,91.55
2024-01-11T13:11:07.408Z,91.28
2024-01-11T13:15:55.119Z,90.30
2024-01-11T13:20:45.132Z,89.72
2024-01-11T13:25:32.251Z,89.30
2024-01-11T13:30:21.359Z,89.40
2024-01-11T13:35:08.973Z,89.38
2024-01-11T13:39:58.680Z,89.08
2024-01-11T13:44:45.894Z,88.58
2024-01-11T13:49:33.153Z,89.24
2024-01-11T13:54:20.325Z,89.18
2024-01-11T13:59:12.828Z,89.08
2024-01-11T14:03:59.974Z,89.04
2024-01-11T14:08:47.285Z,88.86
2024-01-11T14:13:34.544Z,89.00
2024-01-11T14:18:25.062Z,89.31
2024-01-11T14:23:12.711Z,89.37
2024-01-11T14:28:00.066Z,89.09
2024-01-11T14:32:47.576Z,89.41
2024-01-11T14:37:39.172Z,89.54
2024-01-11T14:42:26.615Z,89.28
2024-01-11T14:47:14.028Z,89.77
2024-01-11T14:52:01.141Z,89.59
2024-01-11T14:56:51.080Z,89.72
2024-01-11T15:01:38.323Z,90.19
2024-01-11T15:06:25.771Z,90.12
2024-01-11T15:11:13.068Z,89.72
2024-01-11T15:16:03.545Z,90.17
2024-01-11T15:20:50.809Z,89.92
2024-01-11T15:25:37.996Z,90.43
2024-01-11T15:30:25.416Z,90.79
2024-01-11T15:35:15.534Z,90.60
2024-01-11T15:40:03.636Z,90.80
2024-01-11T15:44:51.799Z,90.81
2024-01-11T15:49:39.207Z,90.96
2024-01-11T15:54:28.921Z,90.61
2024-01-11T15:59:16.259Z,91.15
2024-01-11T16:04:05.529Z,91.21
2024-01-11T16:08:52.876Z,91.42
2024-01-11T16:13:42.811Z,91.71
2024-01-11T16:18:30.217Z,92.24
2024-01-11T16:23:19.668Z,91.95
2024-01-11T16:28:07.104Z,92.39
2024-01-11T16:32:56.842Z,92.51
2024-01-11T16:37:44.101Z,92.18
2024-01-11T16:42:31.476Z,92.96
2024-01-11T16:47:18.705Z,93.00
2024-01-11T16:52:08.799Z,92.97
2024-01-11T16:56:56.294Z,93.68
2024-01-11T17:01:43.713Z,93.62
2024-01-11T17:06:30.835Z,93.74
2024-01-11T17:11:20.623Z,93.59
2024-01-11T17:16:08.292Z,94.17
2024-01-11T17:20:55.582Z,94.65
2024-01-11T17:25:42.849Z,93.90
2024-01-11T17:30:32.865Z,93.76
2024-01-11T17:35:20.439Z,94.02
2024-01-11T17:40:11.632Z,94.49
2024-01-11T17:44:58.891Z,94.71
2024-01-11T17:49:49.159Z,94.27
2024-01-11T17:54:36.956Z,95.11
2024-01-11T17:59:24.203Z,94.64
2024-01-11T18:04:11.595Z,95.51
2024-01-11T18:09:02.037Z,95.20
2024-01-11T18:13:49.320Z,95.44
2024-01-11T18:18:37.053Z,95.36
2024-01-11T18:23:24.378Z,95.63
2024-01-11T18:28:14.261Z,95.30
2024-01-11T18:33:01.558Z,95.27
2024-01-11T18:37:49.959Z,95.59
2024-01-11T18:42:37.162Z,95.68
2024-01-11T18:47:26.994Z,96.43
2024-01-11T18:52:17.299Z,95.83
2024-01-11T18:57:06.593Z,95.94
2024-01-11T19:01:55.015Z,95.72
2024-01-11T19:06:44.928Z,95.55
2024-01-11T19:11:32.472Z,96.23
2024-01-11T19:16:19.833Z,95.97
2024-01-11T19:21:07.226Z,96.04
2024-01-11T19:25:58.378Z,96.24
2024-01-11T19:30:46.906Z,96.44
2024-01-11T19:35:34.181Z,96.15
2024-01-11T19:40:21.536Z,96.20
2024-01-11T19:45:15.371Z,96.54
2024-01-11T19:50:02.570Z,96.72
2024-01-11T19:54:49.782Z,96.69
2024-01-11T19:59:37.056Z,96.39
2024-01-11T20:04:26.834Z,96.70
2024-01-11T20:09:14.032Z,96.88
2024-01-11T20:14:03.549Z,96.85
2024-01-11T20:18:50.916Z,96.87
2024-01-11T20:23:41.938Z,96.78
2024-01-11T20:28:29.192Z,96.96
2024-01-11T20:33:16.667Z,96.93
2024-01-11T20:38:04.716Z,97.26
2024-01-11T20:42:56.838Z,96.98
2024-01-11T20:47:44.069Z,97.06
2024-01-11T20:52:32.295Z,97.22
2024-01-11T20:57:19.472Z,97.63
2024-01-11T21:02:09.248Z,97.38
2024-01-11T21:06:56.649Z,97.74
2024-01-11T21:11:44.003Z,97.86
2024-01-11T21:16:31.505Z,97.72
2024-01-11T21:21:21.307Z,97.83
2024-01-11T21:26:08.550Z,98.09
2024-01-11T21:30:55.816Z,97.89
2024-01-11T21:35:43.229Z,98.10
2024-01-11T21:40:33.203Z,98.07
2024-01-11T21:45:20.312Z,98.36
2024-01-11T21:50:08.505Z,98.00
2024-01-11T21:54:55.716Z,98.35
2024-01-11T21:59:45.579Z,98.22
2024-01-11T22:04:32.783Z,98.46
2024-01-11T22:09:19.939Z,98.52
2024-01-11T22:14:07.179Z,98.73
2024-01-11T22:18:57.060Z,99.41
2024-01-11T22:23:44.694Z,99.18
2024-01-11T22:28:31.919Z,98.99
2024-01-11T22:33:19.258Z,100.00
2024-01-11T22:38:09.079Z,99.56
2024-01-11T22:42:56.353Z,99.83
2024-01-11T22:47:43.686Z,99.79
2024-01-11T22:52:30.877Z,100.00
2024-01-11T22:57:20.763Z,100.00
2024-01-11T23:02:08.144Z,100.00
2024-01-11T23:06:55.278Z,100.00
2024-01-11T23:11:43.612Z,100.00
2024-01-11T23:16:33.554Z,100.00
2024-01-11T23:21:20.764Z,100.00
2024-01-11T23:26:07.897Z,100.00
2024-01-11T23:30:57.728Z,100.00
2024-01-11T23:35:47.816Z,100.00
2024-01-11T23:40:35.123Z,100.00
2024-01-11T23:45:22.268Z,100.00
2024-01-11T23:50:10.346Z,100.00
2024-01-11T23:55:00.621Z,100.00
2024-01-11T23:59:48.035Z,100.00
